sensor_id;sensor_type;location;lat;lon;timestamp;pressure;altitude;pressure_sealevel;temperature;humidity
13407;BME280;6774;48.208;10.766;2024-01-30T00:02:19;96926.38;;;0.98;82.44
13407;BME280;6774;48.208;10.766;2024-01-30T00:04:47;96928.59;;;0.90;82.10
13407;BME280;6774;48.208;10.766;2024-01-30T00:07:15;96922.03;;;0.84;81.91
13407;BME280;6774;48.208;10.766;2024-01-30T00:09:45;96928.78;;;0.72;82.08
13407;BME280;6774;48.208;10.766;2024-01-30T00:12:15;96924.69;;;0.68;82.37
13407;BME280;6774;48.208;10.766;2024-01-30T00:14:42;96924.69;;;0.68;82.23
13407;BME280;6774;48.208;10.766;2024-01-30T00:17:11;96919.50;;;0.68;82.55
13407;BME280;6774;48.208;10.766;2024-01-30T00:19:38;96916.34;;;0.63;82.62
13407;BME280;6774;48.208;10.766;2024-01-30T00:22:06;96921.53;;;0.63;82.73
13407;BME280;6774;48.208;10.766;2024-01-30T00:24:34;96923.38;;;0.61;82.36
13407;BME280;6774;48.208;10.766;2024-01-30T00:27:01;96918.88;;;0.65;82.97
13407;BME280;6774;48.208;10.766;2024-01-30T00:29:31;96912.16;;;0.61;82.85
13407;BME280;6774;48.208;10.766;2024-01-30T00:32:00;96919.13;;;0.60;83.38
13407;BME280;6774;48.208;10.766;2024-01-30T00:34:28;96920.25;;;0.56;84.14
13407;BME280;6774;48.208;10.766;2024-01-30T00:36:56;96920.59;;;0.50;84.58
13407;BME280;6774;48.208;10.766;2024-01-30T00:39:23;96918.38;;;0.58;84.44
13407;BME280;6774;48.208;10.766;2024-01-30T00:41:51;96918.94;;;0.63;84.42
13407;BME280;6774;48.208;10.766;2024-01-30T00:44:19;96922.38;;;0.64;83.89
13407;BME280;6774;48.208;10.766;2024-01-30T00:46:48;96918.69;;;0.68;84.26
13407;BME280;6774;48.208;10.766;2024-01-30T00:49:16;96918.09;;;0.63;84.75
13407;BME280;6774;48.208;10.766;2024-01-30T00:51:43;96923.38;;;0.61;85.03
13407;BME280;6774;48.208;10.766;2024-01-30T00:54:11;96923.28;;;0.63;84.72
13407;BME280;6774;48.208;10.766;2024-01-30T00:56:39;96930.25;;;0.62;84.92
13407;BME280;6774;48.208;10.766;2024-01-30T00:59:07;96935.44;;;0.62;84.43
13407;BME280;6774;48.208;10.766;2024-01-30T01:01:35;96927.84;;;0.59;84.49
13407;BME280;6774;48.208;10.766;2024-01-30T01:04:04;96934.91;;;0.57;84.34
13407;BME280;6774;48.208;10.766;2024-01-30T01:06:32;96931.56;;;0.55;84.12
13407;BME280;6774;48.208;10.766;2024-01-30T01:09:00;96929.13;;;0.52;84.31
13407;BME280;6774;48.208;10.766;2024-01-30T01:11:30;96941.19;;;0.53;84.44
13407;BME280;6774;48.208;10.766;2024-01-30T01:13:58;96934.16;;;0.55;84.58
13407;BME280;6774;48.208;10.766;2024-01-30T01:16:26;96947.16;;;0.55;84.39
13407;BME280;6774;48.208;10.766;2024-01-30T01:18:54;96936.47;;;0.60;84.30
13407;BME280;6774;48.208;10.766;2024-01-30T01:21:24;96940.84;;;0.59;84.40
13407;BME280;6774;48.208;10.766;2024-01-30T01:23:52;96944.38;;;0.58;84.63
13407;BME280;6774;48.208;10.766;2024-01-30T01:26:20;96945.84;;;0.48;84.34
13407;BME280;6774;48.208;10.766;2024-01-30T01:28:48;96948.78;;;0.42;84.67
13407;BME280;6774;48.208;10.766;2024-01-30T01:31:16;96949.63;;;0.42;84.29
13407;BME280;6774;48.208;10.766;2024-01-30T01:33:45;96945.25;;;0.43;84.79
13407;BME280;6774;48.208;10.766;2024-01-30T01:36:13;96936.72;;;0.41;83.97
13407;BME280;6774;48.208;10.766;2024-01-30T01:38:42;96941.19;;;0.39;84.80
13407;BME280;6774;48.208;10.766;2024-01-30T01:41:10;96941.72;;;0.44;84.62
13407;BME280;6774;48.208;10.766;2024-01-30T01:43:38;96936.91;;;0.38;83.95
13407;BME280;6774;48.208;10.766;2024-01-30T01:46:06;96944.88;;;0.35;84.83
13407;BME280;6774;48.208;10.766;2024-01-30T01:48:36;96935.59;;;0.31;83.81
13407;BME280;6774;48.208;10.766;2024-01-30T01:51:06;96936.63;;;0.28;83.87
13407;BME280;6774;48.208;10.766;2024-01-30T01:53:34;96939.47;;;0.23;84.08
13407;BME280;6774;48.208;10.766;2024-01-30T01:56:05;96943.72;;;0.24;84.52
13407;BME280;6774;48.208;10.766;2024-01-30T01:58:33;96939.69;;;0.05;84.35
13407;BME280;6774;48.208;10.766;2024-01-30T02:01:01;96940.34;;;0.08;84.22
13407;BME280;6774;48.208;10.766;2024-01-30T02:03:30;96942.38;;;0.03;84.28
13407;BME280;6774;48.208;10.766;2024-01-30T02:05:58;96942.88;;;0.10;84.26
13407;BME280;6774;48.208;10.766;2024-01-30T02:08:26;96938.97;;;0.17;83.99
13407;BME280;6774;48.208;10.766;2024-01-30T02:10:54;96937.16;;;0.19;83.92
13407;BME280;6774;48.208;10.766;2024-01-30T02:13:23;96938.00;;;0.19;83.63
13407;BME280;6774;48.208;10.766;2024-01-30T02:15:51;96935.22;;;0.22;83.78
13407;BME280;6774;48.208;10.766;2024-01-30T02:18:20;96939.47;;;0.23;84.17
13407;BME280;6774;48.208;10.766;2024-01-30T02:20:48;96936.69;;;0.26;83.70
13407;BME280;6774;48.208;10.766;2024-01-30T02:23:19;96934.28;;;0.23;83.49
13407;BME280;6774;48.208;10.766;2024-01-30T02:25:47;96931.78;;;0.22;83.78
13407;BME280;6774;48.208;10.766;2024-01-30T02:28:15;96938.00;;;0.19;84.04
13407;BME280;6774;48.208;10.766;2024-01-30T02:30:43;96940.00;;;0.14;83.84
13407;BME280;6774;48.208;10.766;2024-01-30T02:33:11;96933.88;;;0.15;84.40
13407;BME280;6774;48.208;10.766;2024-01-30T02:35:39;96929.63;;;0.14;83.94
13407;BME280;6774;48.208;10.766;2024-01-30T02:38:07;96926.38;;;0.11;83.60
13407;BME280;6774;48.208;10.766;2024-01-30T02:40:36;96925.97;;;0.03;83.86
13407;BME280;6774;48.208;10.766;2024-01-30T02:43:04;96914.94;;;-0.01;83.44
13407;BME280;6774;48.208;10.766;2024-01-30T02:45:32;96913.09;;;0.01;83.55
13407;BME280;6774;48.208;10.766;2024-01-30T02:48:00;96919.03;;;0.03;83.87
13407;BME280;6774;48.208;10.766;2024-01-30T02:50:28;96916.25;;;0.06;84.24
13407;BME280;6774;48.208;10.766;2024-01-30T02:52:56;96920.41;;;0.09;83.80
13407;BME280;6774;48.208;10.766;2024-01-30T02:55:23;96910.91;;;0.09;83.67
13407;BME280;6774;48.208;10.766;2024-01-30T02:57:53;96910.91;;;0.09;83.46
13407;BME280;6774;48.208;10.766;2024-01-30T03:00:20;96911.25;;;0.03;84.06
13407;BME280;6774;48.208;10.766;2024-01-30T03:02:48;96906.25;;;0.00;84.01
13407;BME280;6774;48.208;10.766;2024-01-30T03:05:16;96910.47;;;-0.29;84.06
13407;BME280;6774;48.208;10.766;2024-01-30T03:07:44;96909.50;;;-0.42;85.14
13407;BME280;6774;48.208;10.766;2024-01-30T03:10:12;96907.47;;;-0.37;84.55
13407;BME280;6774;48.208;10.766;2024-01-30T03:12:40;96911.16;;;-0.25;84.92
13407;BME280;6774;48.208;10.766;2024-01-30T03:15:09;96907.63;;;-0.24;85.02
13407;BME280;6774;48.208;10.766;2024-01-30T03:17:37;96904.66;;;-0.18;84.67
13407;BME280;6774;48.208;10.766;2024-01-30T03:20:05;96902.94;;;-0.18;85.11
13407;BME280;6774;48.208;10.766;2024-01-30T03:22:34;96901.00;;;-0.14;85.51
13407;BME280;6774;48.208;10.766;2024-01-30T03:25:01;96899.88;;;-0.10;85.20
13407;BME280;6774;48.208;10.766;2024-01-30T03:27:29;96900.72;;;-0.10;85.27
13407;BME280;6774;48.208;10.766;2024-01-30T03:29:57;96896.97;;;-0.20;85.30
13407;BME280;6774;48.208;10.766;2024-01-30T03:32:26;96907.78;;;-0.28;85.11
13407;BME280;6774;48.208;10.766;2024-01-30T03:34:54;96894.81;;;-0.28;85.55
13407;BME280;6774;48.208;10.766;2024-01-30T03:37:22;96889.19;;;-0.20;85.29
13407;BME280;6774;48.208;10.766;2024-01-30T03:39:50;96895.81;;;-0.14;84.68
13407;BME280;6774;48.208;10.766;2024-01-30T03:42:18;96896.22;;;-0.06;84.86
13407;BME280;6774;48.208;10.766;2024-01-30T03:44:45;96885.66;;;-0.03;84.60
13407;BME280;6774;48.208;10.766;2024-01-30T03:47:13;96896.84;;;-0.03;85.06
13407;BME280;6774;48.208;10.766;2024-01-30T03:49:43;96888.44;;;-0.06;84.65
13407;BME280;6774;48.208;10.766;2024-01-30T03:52:10;96891.03;;;-0.06;85.10
13407;BME280;6774;48.208;10.766;2024-01-30T03:54:38;96895.19;;;-0.04;85.00
13407;BME280;6774;48.208;10.766;2024-01-30T03:57:06;96889.75;;;0.01;84.55
13407;BME280;6774;48.208;10.766;2024-01-30T03:59:34;96894.16;;;-0.01;84.87
13407;BME280;6774;48.208;10.766;2024-01-30T04:02:02;96894.66;;;0.06;84.61
13407;BME280;6774;48.208;10.766;2024-01-30T04:04:30;96894.66;;;0.06;84.45
13407;BME280;6774;48.208;10.766;2024-01-30T04:06:59;96894.84;;;0.03;84.44
13407;BME280;6774;48.208;10.766;2024-01-30T04:09:27;96891.66;;;-0.03;85.16
13407;BME280;6774;48.208;10.766;2024-01-30T04:11:55;96892.50;;;-0.02;85.21
13407;BME280;6774;48.208;10.766;2024-01-30T04:14:23;96891.50;;;0.01;84.93
13407;BME280;6774;48.208;10.766;2024-01-30T04:16:51;96890.69;;;0.00;84.82
13407;BME280;6774;48.208;10.766;2024-01-30T04:19:18;96898.47;;;0.00;84.80
13407;BME280;6774;48.208;10.766;2024-01-30T04:21:46;96893.34;;;-0.02;84.86
13407;BME280;6774;48.208;10.766;2024-01-30T04:24:15;96890.03;;;-0.19;85.25
13407;BME280;6774;48.208;10.766;2024-01-30T04:26:45;96901.31;;;-0.35;85.87
13407;BME280;6774;48.208;10.766;2024-01-30T04:29:12;96902.69;;;-0.29;85.64
13407;BME280;6774;48.208;10.766;2024-01-30T04:31:40;96896.75;;;-0.15;85.33
13407;BME280;6774;48.208;10.766;2024-01-30T04:34:08;96908.44;;;-0.08;84.57
13407;BME280;6774;48.208;10.766;2024-01-30T04:36:36;96903.41;;;-0.11;85.26
13407;BME280;6774;48.208;10.766;2024-01-30T04:39:04;96897.13;;;-0.07;85.37
13407;BME280;6774;48.208;10.766;2024-01-30T04:41:33;96899.53;;;-0.04;85.02
13407;BME280;6774;48.208;10.766;2024-01-30T04:44:01;96896.41;;;0.05;84.63
13407;BME280;6774;48.208;10.766;2024-01-30T04:46:28;96895.34;;;0.09;84.07
13407;BME280;6774;48.208;10.766;2024-01-30T04:48:56;96896.47;;;0.19;84.13
13407;BME280;6774;48.208;10.766;2024-01-30T04:51:24;96881.44;;;0.24;84.19
13407;BME280;6774;48.208;10.766;2024-01-30T04:53:52;96896.28;;;0.22;83.27
13407;BME280;6774;48.208;10.766;2024-01-30T04:56:19;96889.50;;;0.20;83.50
13407;BME280;6774;48.208;10.766;2024-01-30T04:58:48;96886.91;;;0.20;83.28
13407;BME280;6774;48.208;10.766;2024-01-30T05:01:16;96891.41;;;0.02;82.82
13407;BME280;6774;48.208;10.766;2024-01-30T05:03:44;96886.50;;;-0.18;83.57
13407;BME280;6774;48.208;10.766;2024-01-30T05:06:12;96891.56;;;-0.01;83.76
13407;BME280;6774;48.208;10.766;2024-01-30T05:08:40;96883.63;;;0.02;83.37
13407;BME280;6774;48.208;10.766;2024-01-30T05:11:08;96886.78;;;0.07;83.38
13407;BME280;6774;48.208;10.766;2024-01-30T05:13:37;96897.00;;;0.10;83.25
13407;BME280;6774;48.208;10.766;2024-01-30T05:16:06;96892.75;;;-0.37;83.89
13407;BME280;6774;48.208;10.766;2024-01-30T05:18:34;96895.22;;;-0.19;84.12
13407;BME280;6774;48.208;10.766;2024-01-30T05:21:02;96899.41;;;-0.17;83.57
13407;BME280;6774;48.208;10.766;2024-01-30T05:23:30;96899.34;;;-0.01;83.27
13407;BME280;6774;48.208;10.766;2024-01-30T05:25:58;96912.69;;;-0.07;83.74
13407;BME280;6774;48.208;10.766;2024-01-30T05:28:28;96909.91;;;-0.04;84.24
13407;BME280;6774;48.208;10.766;2024-01-30T05:30:57;96897.69;;;-0.02;83.85
13407;BME280;6774;48.208;10.766;2024-01-30T05:33:26;96906.88;;;0.04;83.30
13407;BME280;6774;48.208;10.766;2024-01-30T05:35:54;96916.44;;;0.03;83.40
13407;BME280;6774;48.208;10.766;2024-01-30T05:38:21;96915.75;;;-0.01;83.55
13407;BME280;6774;48.208;10.766;2024-01-30T05:40:49;96910.50;;;0.01;83.88
13407;BME280;6774;48.208;10.766;2024-01-30T05:43:17;96911.91;;;0.07;84.13
13407;BME280;6774;48.208;10.766;2024-01-30T05:45:45;96910.72;;;0.12;83.60
13407;BME280;6774;48.208;10.766;2024-01-30T05:48:13;96908.41;;;0.22;83.21
13407;BME280;6774;48.208;10.766;2024-01-30T05:50:42;96917.53;;;0.29;82.59
13407;BME280;6774;48.208;10.766;2024-01-30T05:53:10;96910.56;;;0.30;82.05
13407;BME280;6774;48.208;10.766;2024-01-30T05:55:37;96908.13;;;0.26;81.91
13407;BME280;6774;48.208;10.766;2024-01-30T05:58:05;96916.84;;;0.25;81.76
13407;BME280;6774;48.208;10.766;2024-01-30T06:00:33;96920.28;;;0.26;82.06
13407;BME280;6774;48.208;10.766;2024-01-30T06:03:01;96917.38;;;0.16;82.06
13407;BME280;6774;48.208;10.766;2024-01-30T06:05:29;96918.59;;;0.11;82.22
13407;BME280;6774;48.208;10.766;2024-01-30T06:07:58;96916.25;;;0.06;81.84
13407;BME280;6774;48.208;10.766;2024-01-30T06:10:26;96914.59;;;0.05;82.35
13407;BME280;6774;48.208;10.766;2024-01-30T06:12:54;96912.19;;;0.02;82.31
13407;BME280;6774;48.208;10.766;2024-01-30T06:15:21;96919.22;;;0.00;82.56
13407;BME280;6774;48.208;10.766;2024-01-30T06:17:49;96915.84;;;-0.02;82.69
13407;BME280;6774;48.208;10.766;2024-01-30T06:20:17;96919.38;;;-0.03;82.39
13407;BME280;6774;48.208;10.766;2024-01-30T06:22:45;96917.81;;;-0.06;82.33
13407;BME280;6774;48.208;10.766;2024-01-30T06:25:14;96925.78;;;-0.09;82.83
13407;BME280;6774;48.208;10.766;2024-01-30T06:27:43;96924.84;;;-0.08;83.08
13407;BME280;6774;48.208;10.766;2024-01-30T06:30:12;96923.63;;;-0.02;82.92
13407;BME280;6774;48.208;10.766;2024-01-30T06:32:40;96920.13;;;-0.01;82.44
13407;BME280;6774;48.208;10.766;2024-01-30T06:35:07;96915.69;;;0.01;82.20
13407;BME280;6774;48.208;10.766;2024-01-30T06:37:37;96912.72;;;0.07;82.17
13407;BME280;6774;48.208;10.766;2024-01-30T06:40:06;96924.78;;;0.08;81.87
13407;BME280;6774;48.208;10.766;2024-01-30T06:42:35;96921.75;;;0.16;81.91
13407;BME280;6774;48.208;10.766;2024-01-30T06:45:03;96922.56;;;0.16;81.93
13407;BME280;6774;48.208;10.766;2024-01-30T06:47:31;96930.28;;;0.18;81.03
13407;BME280;6774;48.208;10.766;2024-01-30T06:49:59;96926.69;;;0.20;80.78
13407;BME280;6774;48.208;10.766;2024-01-30T06:52:28;96926.78;;;0.19;81.27
13407;BME280;6774;48.208;10.766;2024-01-30T06:54:56;96925.94;;;0.18;81.48
13407;BME280;6774;48.208;10.766;2024-01-30T06:57:24;96927.75;;;0.16;80.63
13407;BME280;6774;48.208;10.766;2024-01-30T06:59:55;96931.28;;;0.15;81.55
13407;BME280;6774;48.208;10.766;2024-01-30T07:02:23;96931.88;;;0.20;81.08
13407;BME280;6774;48.208;10.766;2024-01-30T07:04:51;96939.47;;;0.23;80.79
13407;BME280;6774;48.208;10.766;2024-01-30T07:07:19;96932.63;;;0.22;81.14
13407;BME280;6774;48.208;10.766;2024-01-30T07:09:47;96929.28;;;0.20;80.80
13407;BME280;6774;48.208;10.766;2024-01-30T07:12:19;96933.34;;;0.24;81.23
13407;BME280;6774;48.208;10.766;2024-01-30T07:14:46;96934.56;;;0.33;81.29
13407;BME280;6774;48.208;10.766;2024-01-30T07:17:16;96934.66;;;0.32;81.68
13407;BME280;6774;48.208;10.766;2024-01-30T07:19:44;96940.59;;;0.34;82.01
13407;BME280;6774;48.208;10.766;2024-01-30T07:22:12;96941.09;;;0.40;81.36
13407;BME280;6774;48.208;10.766;2024-01-30T07:24:42;96944.91;;;0.49;82.08
13407;BME280;6774;48.208;10.766;2024-01-30T07:27:14;96940.66;;;0.62;81.74
13407;BME280;6774;48.208;10.766;2024-01-30T07:29:44;96949.56;;;0.72;81.66
13407;BME280;6774;48.208;10.766;2024-01-30T07:32:12;96952.53;;;0.80;81.43
13407;BME280;6774;48.208;10.766;2024-01-30T07:34:41;96953.59;;;0.92;81.73
13407;BME280;6774;48.208;10.766;2024-01-30T07:37:28;96957.19;;;1.04;82.42
13407;BME280;6774;48.208;10.766;2024-01-30T07:39:56;96957.94;;;1.20;81.66
13407;BME280;6774;48.208;10.766;2024-01-30T07:42:24;96960.50;;;1.34;81.45
13407;BME280;6774;48.208;10.766;2024-01-30T07:44:52;96965.94;;;1.44;80.99
13407;BME280;6774;48.208;10.766;2024-01-30T07:47:19;96962.16;;;1.50;80.67
13407;BME280;6774;48.208;10.766;2024-01-30T07:49:49;96971.66;;;1.63;80.87
13407;BME280;6774;48.208;10.766;2024-01-30T07:52:17;96958.19;;;1.71;80.70
13407;BME280;6774;48.208;10.766;2024-01-30T07:54:45;96972.16;;;1.83;79.61
13407;BME280;6774;48.208;10.766;2024-01-30T07:57:13;96967.03;;;1.95;79.10
13407;BME280;6774;48.208;10.766;2024-01-30T07:59:42;96971.72;;;2.30;78.62
13407;BME280;6774;48.208;10.766;2024-01-30T08:02:11;96968.63;;;2.50;77.74
13407;BME280;6774;48.208;10.766;2024-01-30T08:04:39;96968.34;;;2.80;77.68
13407;BME280;6774;48.208;10.766;2024-01-30T08:07:08;96970.09;;;3.18;77.14
13407;BME280;6774;48.208;10.766;2024-01-30T08:09:36;96965.38;;;3.36;76.47
13407;BME280;6774;48.208;10.766;2024-01-30T08:12:04;96968.28;;;3.81;75.56
13407;BME280;6774;48.208;10.766;2024-01-30T08:14:32;96961.78;;;3.86;74.94
13407;BME280;6774;48.208;10.766;2024-01-30T08:17:00;96962.63;;;3.87;74.01
13407;BME280;6774;48.208;10.766;2024-01-30T08:19:28;96965.19;;;3.76;74.36
13407;BME280;6774;48.208;10.766;2024-01-30T08:21:56;96965.59;;;3.69;75.21
13407;BME280;6774;48.208;10.766;2024-01-30T08:24:25;96969.16;;;3.68;75.44
13407;BME280;6774;48.208;10.766;2024-01-30T08:26:53;96965.19;;;3.76;75.15
13407;BME280;6774;48.208;10.766;2024-01-30T08:29:20;96969.75;;;3.85;75.73
13407;BME280;6774;48.208;10.766;2024-01-30T08:31:48;96970.41;;;3.99;75.93
13407;BME280;6774;48.208;10.766;2024-01-30T08:34:16;96973.06;;;4.35;76.22
13407;BME280;6774;48.208;10.766;2024-01-30T08:36:44;96975.00;;;4.55;74.74
13407;BME280;6774;48.208;10.766;2024-01-30T08:39:12;96973.72;;;4.61;73.87
13407;BME280;6774;48.208;10.766;2024-01-30T08:41:42;96970.50;;;4.57;74.05
13407;BME280;6774;48.208;10.766;2024-01-30T08:44:10;96977.44;;;4.69;73.83
13407;BME280;6774;48.208;10.766;2024-01-30T08:46:38;96976.03;;;4.76;74.15
13407;BME280;6774;48.208;10.766;2024-01-30T08:49:06;96971.78;;;4.87;73.88
13407;BME280;6774;48.208;10.766;2024-01-30T08:51:34;96969.63;;;5.03;74.61
13407;BME280;6774;48.208;10.766;2024-01-30T08:54:02;96971.09;;;5.29;74.16
13407;BME280;6774;48.208;10.766;2024-01-30T08:56:30;96966.31;;;5.46;74.05
13407;BME280;6774;48.208;10.766;2024-01-30T08:59:00;96970.00;;;5.54;73.43
13407;BME280;6774;48.208;10.766;2024-01-30T09:01:27;96964.75;;;5.65;73.66
13407;BME280;6774;48.208;10.766;2024-01-30T09:03:55;96963.19;;;5.85;74.15
13407;BME280;6774;48.208;10.766;2024-01-30T09:06:23;96968.00;;;6.44;73.91
13407;BME280;6774;48.208;10.766;2024-01-30T09:08:53;96956.13;;;7.74;71.12
13407;BME280;6774;48.208;10.766;2024-01-30T09:11:21;96960.03;;;9.52;65.57
13407;BME280;6774;48.208;10.766;2024-01-30T09:13:48;96959.44;;;10.66;62.55
13407;BME280;6774;48.208;10.766;2024-01-30T09:16:18;96952.69;;;11.76;60.06
13407;BME280;6774;48.208;10.766;2024-01-30T09:18:46;96949.28;;;12.58;57.91
13407;BME280;6774;48.208;10.766;2024-01-30T09:21:14;96952.88;;;13.47;56.12
13407;BME280;6774;48.208;10.766;2024-01-30T09:23:41;96943.22;;;14.24;53.85
13407;BME280;6774;48.208;10.766;2024-01-30T09:26:09;96935.22;;;15.01;52.43
13407;BME280;6774;48.208;10.766;2024-01-30T09:28:39;96940.88;;;15.80;51.59
13407;BME280;6774;48.208;10.766;2024-01-30T09:31:09;96943.44;;;16.39;50.93
13407;BME280;6774;48.208;10.766;2024-01-30T09:33:39;96938.00;;;16.90;49.92
13407;BME280;6774;48.208;10.766;2024-01-30T09:36:08;96940.06;;;17.44;48.86
13407;BME280;6774;48.208;10.766;2024-01-30T09:38:36;96940.59;;;17.60;47.72
13407;BME280;6774;48.208;10.766;2024-01-30T09:41:08;96941.00;;;17.99;47.00
13407;BME280;6774;48.208;10.766;2024-01-30T09:43:37;96936.91;;;18.64;47.15
13407;BME280;6774;48.208;10.766;2024-01-30T09:46:05;96941.28;;;18.78;46.92
13407;BME280;6774;48.208;10.766;2024-01-30T09:48:35;96935.13;;;18.97;45.62
13407;BME280;6774;48.208;10.766;2024-01-30T09:51:05;96938.19;;;19.27;45.07
13407;BME280;6774;48.208;10.766;2024-01-30T09:53:33;96939.41;;;19.65;45.04
13407;BME280;6774;48.208;10.766;2024-01-30T09:56:02;96933.94;;;20.04;44.56
13407;BME280;6774;48.208;10.766;2024-01-30T09:58:30;96930.47;;;20.42;43.82
13407;BME280;6774;48.208;10.766;2024-01-30T10:00:58;96936.56;;;21.19;43.25
13407;BME280;6774;48.208;10.766;2024-01-30T10:03:26;96935.28;;;21.71;43.04
13407;BME280;6774;48.208;10.766;2024-01-30T10:05:55;96926.13;;;22.16;42.10
13407;BME280;6774;48.208;10.766;2024-01-30T10:08:26;96935.94;;;22.03;42.22
13407;BME280;6774;48.208;10.766;2024-01-30T10:10:53;96927.56;;;21.56;41.79
13407;BME280;6774;48.208;10.766;2024-01-30T10:13:21;96934.53;;;21.14;41.37
13407;BME280;6774;48.208;10.766;2024-01-30T10:15:49;96928.31;;;22.00;41.28
13407;BME280;6774;48.208;10.766;2024-01-30T10:18:18;96931.66;;;22.51;39.68
13407;BME280;6774;48.208;10.766;2024-01-30T10:20:46;96922.09;;;22.66;39.33
13407;BME280;6774;48.208;10.766;2024-01-30T10:23:14;96926.72;;;22.18;39.33
13407;BME280;6774;48.208;10.766;2024-01-30T10:25:43;96916.31;;;21.23;40.46
13407;BME280;6774;48.208;10.766;2024-01-30T10:28:11;96913.41;;;20.30;41.56
13407;BME280;6774;48.208;10.766;2024-01-30T10:30:39;96915.53;;;19.37;41.54
13407;BME280;6774;48.208;10.766;2024-01-30T10:33:07;96922.47;;;18.38;42.99
13407;BME280;6774;48.208;10.766;2024-01-30T10:35:35;96925.41;;;17.61;44.83
13407;BME280;6774;48.208;10.766;2024-01-30T10:38:05;96926.19;;;16.99;47.60
13407;BME280;6774;48.208;10.766;2024-01-30T10:40:37;96923.56;;;16.77;48.73
13407;BME280;6774;48.208;10.766;2024-01-30T10:43:10;96923.09;;;16.16;49.23
13407;BME280;6774;48.208;10.766;2024-01-30T10:45:40;96920.13;;;15.90;50.04
13407;BME280;6774;48.208;10.766;2024-01-30T10:48:11;96917.28;;;15.32;51.39
13407;BME280;6774;48.208;10.766;2024-01-30T10:50:40;96907.69;;;15.46;51.84
13407;BME280;6774;48.208;10.766;2024-01-30T10:53:21;96908.19;;;15.27;52.16
13407;BME280;6774;48.208;10.766;2024-01-30T10:55:51;96907.38;;;15.26;52.54
13407;BME280;6774;48.208;10.766;2024-01-30T10:58:20;96894.81;;;15.35;52.90
13407;BME280;6774;48.208;10.766;2024-01-30T11:00:49;96894.38;;;15.61;51.82
13407;BME280;6774;48.208;10.766;2024-01-30T11:03:18;96894.22;;;16.35;51.28
13407;BME280;6774;48.208;10.766;2024-01-30T11:05:49;96900.66;;;17.46;47.74
13407;BME280;6774;48.208;10.766;2024-01-30T11:08:23;96888.75;;;18.64;45.05
13407;BME280;6774;48.208;10.766;2024-01-30T11:10:55;96892.47;;;19.42;43.58
13407;BME280;6774;48.208;10.766;2024-01-30T11:13:27;96889.56;;;19.64;43.24
13407;BME280;6774;48.208;10.766;2024-01-30T11:16:00;96885.03;;;19.44;42.90
13407;BME280;6774;48.208;10.766;2024-01-30T11:18:29;96878.50;;;19.00;44.61
13407;BME280;6774;48.208;10.766;2024-01-30T11:20:58;96880.19;;;18.75;45.25
13407;BME280;6774;48.208;10.766;2024-01-30T11:23:28;96880.94;;;18.56;45.86
13407;BME280;6774;48.208;10.766;2024-01-30T11:25:56;96887.88;;;18.24;46.36
13407;BME280;6774;48.208;10.766;2024-01-30T11:28:33;96877.03;;;17.77;47.13
13407;BME280;6774;48.208;10.766;2024-01-30T11:31:05;96875.56;;;17.33;47.82
13407;BME280;6774;48.208;10.766;2024-01-30T11:33:34;96874.81;;;16.84;48.38
13407;BME280;6774;48.208;10.766;2024-01-30T11:36:03;96881.16;;;16.18;51.99
13407;BME280;6774;48.208;10.766;2024-01-30T11:38:33;96881.75;;;15.99;52.77
13407;BME280;6774;48.208;10.766;2024-01-30T11:41:01;96884.91;;;15.88;52.75
13407;BME280;6774;48.208;10.766;2024-01-30T11:43:30;96877.41;;;15.77;53.11
13407;BME280;6774;48.208;10.766;2024-01-30T11:46:01;96884.66;;;15.68;54.09
13407;BME280;6774;48.208;10.766;2024-01-30T11:48:30;96871.91;;;15.63;52.71
13407;BME280;6774;48.208;10.766;2024-01-30T11:50:58;96874.66;;;15.55;52.23
13407;BME280;6774;48.208;10.766;2024-01-30T11:53:27;96870.59;;;15.59;51.84
13407;BME280;6774;48.208;10.766;2024-01-30T11:55:56;96868.66;;;15.53;52.45
13407;BME280;6774;48.208;10.766;2024-01-30T11:58:25;96862.53;;;15.53;52.80
13407;BME280;6774;48.208;10.766;2024-01-30T12:00:54;96862.31;;;15.54;53.00
13407;BME280;6774;48.208;10.766;2024-01-30T12:03:24;96860.34;;;15.56;52.73
13407;BME280;6774;48.208;10.766;2024-01-30T12:05:56;96857.59;;;15.64;52.93
13407;BME280;6774;48.208;10.766;2024-01-30T12:08:25;96852.53;;;15.70;53.17
13407;BME280;6774;48.208;10.766;2024-01-30T12:10:57;96845.59;;;15.90;53.68
13407;BME280;6774;48.208;10.766;2024-01-30T12:13:25;96847.41;;;16.04;52.77
13407;BME280;6774;48.208;10.766;2024-01-30T12:15:58;96847.88;;;16.29;53.38
13407;BME280;6774;48.208;10.766;2024-01-30T12:18:30;96848.91;;;16.35;50.80
13407;BME280;6774;48.208;10.766;2024-01-30T12:20:58;96850.22;;;16.39;50.76
13407;BME280;6774;48.208;10.766;2024-01-30T12:23:28;96851.91;;;16.46;48.62
13407;BME280;6774;48.208;10.766;2024-01-30T12:25:56;96852.09;;;16.66;46.77
13407;BME280;6774;48.208;10.766;2024-01-30T12:28:24;96849.88;;;16.48;46.33
13407;BME280;6774;48.208;10.766;2024-01-30T12:30:55;96848.00;;;15.85;46.00
13407;BME280;6774;48.208;10.766;2024-01-30T12:33:26;96841.91;;;15.55;47.38
13407;BME280;6774;48.208;10.766;2024-01-30T12:35:55;96847.09;;;15.78;47.02
13407;BME280;6774;48.208;10.766;2024-01-30T12:38:29;96838.34;;;15.03;49.92
13407;BME280;6774;48.208;10.766;2024-01-30T12:40:57;96842.56;;;15.13;51.21
13407;BME280;6774;48.208;10.766;2024-01-30T12:43:25;96842.63;;;15.04;49.94
13407;BME280;6774;48.208;10.766;2024-01-30T12:46:04;96844.91;;;14.78;51.32
13407;BME280;6774;48.208;10.766;2024-01-30T12:48:33;96842.47;;;14.54;52.89
13407;BME280;6774;48.208;10.766;2024-01-30T12:51:02;96837.97;;;14.31;52.69
13407;BME280;6774;48.208;10.766;2024-01-30T12:53:31;96838.63;;;13.87;53.54
13407;BME280;6774;48.208;10.766;2024-01-30T12:55:58;96839.47;;;13.57;54.33
13407;BME280;6774;48.208;10.766;2024-01-30T12:58:26;96839.03;;;13.76;53.68
13407;BME280;6774;48.208;10.766;2024-01-30T13:00:54;96831.28;;;13.89;55.26
13407;BME280;6774;48.208;10.766;2024-01-30T13:03:22;96837.38;;;13.98;57.83
13407;BME280;6774;48.208;10.766;2024-01-30T13:05:50;96829.59;;;13.97;53.23
13407;BME280;6774;48.208;10.766;2024-01-30T13:08:19;96827.44;;;13.69;53.46
13407;BME280;6774;48.208;10.766;2024-01-30T13:10:47;96837.56;;;13.34;53.19
13407;BME280;6774;48.208;10.766;2024-01-30T13:13:16;96843.56;;;13.28;54.69